Flight Track Log - Related Links

Times and Time Zones

All times are in EDT time to prevent confusion due to time zone crossing. See the FLG3429 flight status page for this flight to view local times or setup timezone preferences in your user account.


Time Position Orientation Groundspeed Altitude Reporting Facility
EDT Latitude Longitude Course Direction KTS MPH feet Rate Location/Type
Sun 07:30:32 PM 40.6167 -73.7667 153° Southeast 173 199 1,700  Level New York TRACON
Sun 07:31:32 PM 40.5667 -73.7333 153° Southeast 213 245 3,700 1,950 Climbing New York TRACON
Sun 07:32:32 PM 40.5167 -73.6667 135° Southeast 262 302 5,600 1,793 Climbing New York TRACON
Sun 07:34:36 PM 40.3914 -73.5561 146° Southeast 277 319 9,200 1,761 Climbing New York Center
Sun 07:35:36 PM 40.3047 -73.5225 164° South 285 328 11,000 1,500 Climbing New York Center
Sun 07:36:36 PM 40.2175 -73.5000 169° South 337 388 12,200 1,700 Climbing New York Center
Sun 07:37:36 PM 40.1047 -73.5172 187° South 363 418 14,400 2,000 Climbing New York Center
Sun 07:38:36 PM 39.9981 -73.5319 186° South 387 445 16,200 1,644 Climbing New York Center
Sun 07:40:02 PM 39.8358 -73.5650 189° South 411 473 18,400 1,551 Climbing Washington Center
Sun 07:41:03 PM 39.7458 -73.6539 217° Southwest 402 463 20,000 1,426 Climbing Washington Center
Sun 07:42:04 PM 39.6658 -73.7369 219° Southwest 402 463 21,300 1,180 Climbing Washington Center
Sun 07:43:05 PM 39.5778 -73.8361 221° Southwest 414 476 22,400 1,220 Climbing Washington Center
Sun 07:44:02 PM 39.4811 -73.9406 220° Southwest 436 502 23,700 1,179 Climbing Washington Center
Sun 07:45:02 PM 39.3867 -74.0450 221° Southwest 447 514 24,700 1,082 Climbing Washington Center
Sun 07:46:04 PM 39.2900 -74.1517 221° Southwest 456 525 25,900 1,150 Climbing Washington Center
Sun 07:47:02 PM 39.1933 -74.2553 220° Southwest 456 525 27,000 1,068 Climbing Washington Center
Sun 07:48:02 PM 39.0967 -74.3614 220° Southwest 456 525 28,000 492 Climbing Washington Center
Sun 07:49:04 PM 38.9997 -74.4672 220° Southwest 461 531 28,000  Level Washington Center
Sun 07:50:03 PM 38.9025 -74.5728 220° Southwest 456 525 28,000  Level Washington Center
Sun 07:51:04 PM 38.8097 -74.6725 220° Southwest 451 519 28,000  Level Washington Center
Sun 07:52:04 PM 38.7144 -74.7775 221° Southwest 451 519 28,000  Level Washington Center
Sun 07:53:04 PM 38.6172 -74.8769 219° Southwest 451 519 28,000  Level Washington Center
Sun 07:54:02 PM 38.5175 -74.9733 217° Southwest 456 525 28,000  Level Washington Center
Sun 07:55:04 PM 38.4158 -75.0592 213° Southwest 449 517 28,000  Level Washington Center
Sun 07:56:04 PM 38.3161 -75.1444 214° Southwest 443 510 28,000  Level Washington Center
Sun 07:57:03 PM 38.2183 -75.2350 216° Southwest 443 510 28,000  Level Washington Center
Sun 07:58:04 PM 38.1164 -75.3225 214° Southwest 443 510 28,000  Level Washington Center
Sun 07:59:05 PM 38.0125 -75.4072 213° Southwest 443 510 28,000  Level Washington Center
Sun 08:00:02 PM 37.9083 -75.4997 215° Southwest 448 516 28,000  Level Washington Center
Sun 08:01:02 PM 37.8039 -75.5867 213° Southwest 448 516 28,000  Level Washington Center
Sun 08:02:04 PM 37.6997 -75.6758 214° Southwest 453 521 28,000  Level Washington Center
Sun 08:03:04 PM 37.5933 -75.7622 213° Southwest 458 527 28,000  Level Washington Center
Sun 08:04:02 PM 37.4867 -75.8536 214° Southwest 463 533 28,000  Level Washington Center
Sun 08:05:04 PM 37.3842 -75.9369 213° Southwest 458 527 28,000  Level Washington Center
Sun 08:06:04 PM 37.2775 -76.0278 214° Southwest 463 533 28,000  Level Washington Center
Sun 08:07:02 PM 37.1750 -76.1131 214° Southwest 458 527 28,000  Level Washington Center
Sun 08:08:02 PM 37.0661 -76.1931 210° Southwest 458 527 28,000  Level Washington Center
Sun 08:09:03 PM 36.9614 -76.2808 214° Southwest 458 527 28,000  Level Washington Center
Sun 08:10:04 PM 36.8586 -76.3656 213° Southwest 458 527 28,000  Level Washington Center
Sun 08:11:02 PM 36.7539 -76.4500 213° Southwest 458 527 28,000  Level Washington Center
Sun 08:12:03 PM 36.6406 -76.5472 215° Southwest 458 527 28,000  Level Washington Center
Sun 08:13:03 PM 36.5311 -76.6364 213° Southwest 463 533 28,000  Level Washington Center
Sun 08:14:05 PM 36.4242 -76.7200 212° Southwest 463 533 28,000  Level Washington Center
Sun 08:15:02 PM 36.3169 -76.8061 213° Southwest 463 533 28,000  Level Washington Center
Sun 08:16:03 PM 36.2117 -76.8919 213° Southwest 463 533 28,000  Level Washington Center
Sun 08:17:04 PM 36.1042 -76.9778 213° Southwest 463 533 28,000  Level Washington Center
Sun 08:18:05 PM 35.9925 -77.0656 212° Southwest 468 539 28,000  Level Washington Center
Sun 08:19:03 PM 35.8978 -77.1483 215° Southwest 468 539 28,000  Level Washington Center
Sun 08:20:03 PM 35.7919 -77.2539 219° Southwest 479 551 28,000  Level Washington Center
Sun 08:21:03 PM 35.6883 -77.3567 219° Southwest 484 557 28,000  Level Washington Center
Sun 08:22:04 PM 35.5844 -77.4642 220° Southwest 495 570 28,000  Level Washington Center
Sun 08:23:03 PM 35.4783 -77.5689 219° Southwest 495 570 28,000  Level Washington Center
Sun 08:24:03 PM 35.3703 -77.6731 218° Southwest 495 570 28,000  Level Washington Center
Sun 08:25:02 PM 35.2619 -77.7797 219° Southwest 501 577 28,000  Level Washington Center
Sun 08:26:03 PM 35.1578 -77.8836 219° Southwest 501 577 28,000  Level Washington Center
Sun 08:27:04 PM 35.0514 -77.9872 219° Southwest 501 577 28,000  Level Washington Center
Sun 08:28:04 PM 34.9469 -78.0906 219° Southwest 501 577 28,000  Level Washington Center
Sun 08:29:02 PM 34.8403 -78.1958 219° Southwest 501 577 28,000  Level Washington Center
Sun 08:30:02 PM 34.7358 -78.3039 220° Southwest 501 577 28,000  Level Washington Center
Sun 08:31:04 PM 34.6144 -78.4200 218° Southwest 477 549 28,000  Level Jacksonville Center
Sun 08:32:04 PM 34.5175 -78.5056 216° Southwest 482 555 28,000  Level Jacksonville Center
Sun 08:33:04 PM 34.4025 -78.6247 221° Southwest 493 567 28,000  Level Jacksonville Center
Sun 08:34:04 PM 34.2975 -78.7253 218° Southwest 493 567 28,000  Level Jacksonville Center
Sun 08:35:04 PM 34.1922 -78.8233 218° Southwest 493 567 28,000  Level Jacksonville Center
Sun 08:36:04 PM 34.0850 -78.9261 218° Southwest 493 567 28,000  Level Jacksonville Center
Sun 08:37:04 PM 33.9817 -79.0233 218° Southwest 493 567 28,000  Level Jacksonville Center
Sun 08:38:04 PM 33.8761 -79.1231 218° Southwest 493 567 28,000  Level Jacksonville Center
Sun 08:39:04 PM 33.7706 -79.2200 217° Southwest 493 567 28,000  Level Jacksonville Center
Sun 08:40:04 PM 33.6689 -79.3167 218° Southwest 485 558 28,000  Level Jacksonville Center
Sun 08:41:04 PM 33.5653 -79.4131 218° Southwest 480 552 28,000  Level Jacksonville Center
Sun 08:42:04 PM 33.4614 -79.5117 218° Southwest 480 552 28,000  Level Jacksonville Center
Sun 08:43:04 PM 33.3597 -79.6075 218° Southwest 480 552 28,000  Level Jacksonville Center
Sun 08:44:04 PM 33.2556 -79.7058 218° Southwest 480 552 28,000  Level Jacksonville Center
Sun 08:45:04 PM 33.1517 -79.7986 217° Southwest 480 552 28,000  Level Jacksonville Center
Sun 08:46:04 PM 33.0475 -79.8964 218° Southwest 480 552 28,000  Level Jacksonville Center
Sun 08:47:04 PM 32.9617 -79.9736 217° Southwest 480 552 28,000  Level Jacksonville Center
Sun 08:48:04 PM 32.8450 -80.0764 217° Southwest 480 552 28,000  Level Jacksonville Center
Sun 08:49:04 PM 32.7364 -80.1636 214° Southwest 480 552 28,000  Level Jacksonville Center
Sun 08:50:04 PM 32.6253 -80.2483 213° Southwest 480 552 28,000  Level Jacksonville Center
Sun 08:51:04 PM 32.5164 -80.3328 213° Southwest 480 552 28,000  Level Jacksonville Center
Sun 08:52:04 PM 32.4075 -80.4194 214° Southwest 480 552 28,000  Level Jacksonville Center
Sun 08:53:04 PM 32.2964 -80.5036 213° Southwest 480 552 28,000  Level Jacksonville Center
Sun 08:54:04 PM 32.1853 -80.5875 213° Southwest 480 552 28,000 -600 Level Jacksonville Center
Sun 08:55:04 PM 32.0678 -80.6814 214° Southwest 475 547 26,800 -1,100 Descending Jacksonville Center
Sun 08:56:04 PM 31.9689 -80.7547 212° Southwest 480 552 25,800 -1,100 Descending Jacksonville Center
Sun 08:57:04 PM 31.8453 -80.8506 213° Southwest 480 552 24,600 -1,100 Descending Jacksonville Center
Sun 08:58:04 PM 31.7297 -80.9361 212° Southwest 488 562 23,600 -1,050 Descending Jacksonville Center
Sun 08:59:04 PM 31.6306 -81.0039 210° Southwest 483 556 22,500 -1,350 Descending Jacksonville Center
Sun 09:00:04 PM 31.5064 -81.0797 208° Southwest 465 535 20,900 -1,800 Descending Jacksonville Center
Sun 09:01:04 PM 31.4069 -81.1375 206° Southwest 447 514 18,900 -2,113 Descending Jacksonville Center
Sun 09:01:15 PM 31.3781 -81.1600 214° Southwest 435 501 18,400 -2,000 Descending Jacksonville Center
Sun 09:02:04 PM 31.2992 -81.2053 206° Southwest 441 507 16,900 -2,083 Descending Jacksonville Center
Sun 09:02:27 PM 31.2475 -81.2353 206° Southwest 427 491 15,900 -2,100 Descending Jacksonville Center
Sun 09:03:04 PM 31.1958 -81.2678 208° Southwest 436 502 14,800 -2,164 Descending Jacksonville Center
Sun 09:03:28 PM 31.1419 -81.3003 207° Southwest 418 481 13,700 -2,100 Descending Jacksonville Center
Sun 09:04:04 PM 31.0942 -81.3303 208° Southwest 425 489 12,700 -2,060 Descending Jacksonville Center
Sun 09:04:35 PM 31.0300 -81.3675 206° Southwest 403 464 11,400 -2,000 Descending Jacksonville Center
Sun 09:05:04 PM 30.9947 -81.3875 206° Southwest 414 476 10,700 -1,400 Descending Jacksonville Center
Sun 09:05:35 PM 30.9344 -81.4272 209° Southwest 375 432 10,000 -700 Descending Jacksonville Center
Sun 09:06:04 PM 30.9056 -81.4447 207° Southwest 390 449 10,000  Level Jacksonville Center
Sun 09:06:36 PM 30.8558 -81.4867 216° Southwest 327 376 10,000 -100 Level Jacksonville Center
Sun 09:07:04 PM 30.8375 -81.5111 229° Southwest 356 410 9,900 -1,522 Descending Jacksonville Center
Sun 09:07:43 PM 30.7919 -81.5578 221° Southwest 289 333 8,300 -1,800 Descending Jacksonville Center
Sun 09:08:04 PM 30.7775 -81.5747 225° Southwest 318 366 8,100 -1,400 Descending Jacksonville Center
Sun 09:08:43 PM 30.7342 -81.6189 221° Southwest 271 312 6,900 -1,700 Descending Jacksonville Center
Sun 09:09:04 PM 30.7239 -81.6336 231° Southwest 295 339 6,400 -1,967 Descending Jacksonville Center
Sun 09:09:44 PM 30.6806 -81.6800 223° Southwest 273 314 4,900 -1,900 Descending Jacksonville Center
Sun 09:10:04 PM 30.6658 -81.6947 221° Southwest 288 331 4,500 -1,672 Descending Jacksonville Center
Sun 09:10:45 PM 30.6225 -81.7411 223° Southwest 277 319 3,200 -1,700 Descending Jacksonville Center
Sun 09:11:04 PM 30.6122 -81.7581 235° Southwest 288 331 2,800 -1,200 Descending Jacksonville Center
Sun 09:11:45 PM 30.5708 -81.8044 224° Southwest 262 302 2,000 -500 Descending Jacksonville Center
Sun 09:12:40 PM 30.5231 -81.8267 202° Southwest 191 220 2,000 -148 Level Jacksonville Center
Sun 09:13:47 PM 30.4769 -81.7983 152° Southeast 164 189 1,700 -451 Descending Jacksonville Center
Sun 09:14:53 PM 30.4786 -81.7525 88° East 126 145 1,000 -661 Descending Jacksonville Center
Sun 09:15:54 PM 30.4908 -81.7139 70° East 132 152 300 -689 Descending Jacksonville Center
Sun 09:17:00 PM 30.4833 -81.6833 130° Southeast  Level FlightAware Approximate

Login

Don't have an account? Register now (free) for customized features, flight alerts, and more!